This is the latest recevied weather packets stored in our database for station/object OH2HCY. If no packets are shown the sender has not sent any weather packets the latest 10 day(s).
| Time | Temp. | Humidity | Pressure | Rain* | Wind** | Luminosity | Snow |
|---|---|---|---|---|---|---|---|
| 1777843350 | 12.22° C | 71% | 1003.4 hPa | - | - | - | - |
| 1777842810 | 12.22° C | 68% | 1003.3 hPa | - | - | - | - |
| 1777841740 | 12.22° C | 73% | 1003.4 hPa | - | - | - | - |
| 1777841215 | 12.22° C | 71% | 1003.4 hPa | - | - | - | - |
| 1777840680 | 12.22° C | 71% | 1003.4 hPa | - | - | - | - |
| 1777840154 | 12.22° C | 69% | 1003.5 hPa | - | - | - | - |
| 1777839625 | 12.22° C | 66% | 1003.5 hPa | - | - | - | - |
| 1777839085 | 12.78° C | 70% | 1003.5 hPa | - | - | - | - |
| 1777835255 | 12.78° C | 67% | 1003.5 hPa | - | - | - | - |
| 1777832515 | 13.33° C | 63% | 1003.2 hPa | - | - | - | - |
| 1777831985 | 13.33° C | 63% | 1003.1 hPa | - | - | - | - |
| 1777829210 | 13.89° C | 57% | 1002.8 hPa | - | - | - | - |
| 1777827070 | 14.44° C | 51% | 1002.4 hPa | - | - | - | - |
| 1777826555 | 15° C | 50% | 1002.2 hPa | - | - | - | - |
| 1777826025 | 15° C | 50% | 1002.3 hPa | - | - | - | - |
| 1777824960 | 15° C | 50% | 1002.3 hPa | - | - | - | - |
| 1777824399 | 15° C | 49% | 1002.2 hPa | - | - | - | - |
| 1777822270 | 15.56° C | 49% | 1002.1 hPa | - | - | - | - |
| 1777821745 | 15° C | 48% | 1002 hPa | - | - | - | - |
| 1777819610 | 15° C | 49% | 1002.2 hPa | - | - | - | - |
| 1777819030 | 15.56° C | 48% | 1002 hPa | - | - | - | - |
| 1777817930 | 16.11° C | 47% | 1001.8 hPa | - | - | - | - |
| 1777817355 | 15.56° C | 48% | 1001.9 hPa | - | - | - | - |
| 1777816320 | 16.11° C | 47% | 1001.8 hPa | - | - | - | - |
| 1777812545 | 15.56° C | 49% | 1002 hPa | - | - | - | - |
* Rain since midnight (hover to see other rain measurements)
** Current wind speed in m/s (hover to see current wind gust speed)